sensor_id;sensor_type;location;lat;lon;timestamp;P1;durP1;ratioP1;P2;durP2;ratioP2
3287;SDS011;3260;52.438;13.502;2022-07-17T04:01:56;4.97;;;0.90;;
3287;SDS011;3260;52.438;13.502;2022-07-17T04:04:24;4.97;;;0.90;;
3287;SDS011;3260;52.438;13.502;2022-07-17T04:06:53;5.00;;;0.90;;
3287;SDS011;3260;52.438;13.502;2022-07-17T04:09:21;4.90;;;0.90;;
3287;SDS011;3260;52.438;13.502;2022-07-17T04:11:49;5.07;;;1.07;;
3287;SDS011;3260;52.438;13.502;2022-07-17T04:14:17;5.00;;;0.90;;
3287;SDS011;3260;52.438;13.502;2022-07-17T04:16:45;4.97;;;0.90;;
3287;SDS011;3260;52.438;13.502;2022-07-17T04:19:15;5.00;;;0.90;;
3287;SDS011;3260;52.438;13.502;2022-07-17T04:21:43;5.00;;;0.90;;
3287;SDS011;3260;52.438;13.502;2022-07-17T04:24:11;4.97;;;0.90;;
3287;SDS011;3260;52.438;13.502;2022-07-17T04:26:39;5.00;;;0.90;;
3287;SDS011;3260;52.438;13.502;2022-07-17T04:29:08;5.00;;;0.90;;
3287;SDS011;3260;52.438;13.502;2022-07-17T04:31:36;5.00;;;0.90;;
3287;SDS011;3260;52.438;13.502;2022-07-17T04:34:04;5.00;;;0.90;;
3287;SDS011;3260;52.438;13.502;2022-07-17T04:36:33;4.93;;;0.80;;
3287;SDS011;3260;52.438;13.502;2022-07-17T04:39:02;5.00;;;0.90;;
3287;SDS011;3260;52.438;13.502;2022-07-17T04:41:30;5.07;;;0.90;;
3287;SDS011;3260;52.438;13.502;2022-07-17T04:43:58;5.00;;;0.87;;
3287;SDS011;3260;52.438;13.502;2022-07-17T04:46:26;4.97;;;0.90;;
3287;SDS011;3260;52.438;13.502;2022-07-17T04:48:57;5.00;;;0.87;;
3287;SDS011;3260;52.438;13.502;2022-07-17T04:51:26;5.03;;;0.90;;
3287;SDS011;3260;52.438;13.502;2022-07-17T04:54:03;5.03;;;0.80;;
3287;SDS011;3260;52.438;13.502;2022-07-17T04:56:31;5.10;;;0.90;;
3287;SDS011;3260;52.438;13.502;2022-07-17T04:59:00;5.00;;;0.90;;
3287;SDS011;3260;52.438;13.502;2022-07-17T05:01:28;4.93;;;0.80;;
3287;SDS011;3260;52.438;13.502;2022-07-17T05:03:57;5.10;;;0.90;;
3287;SDS011;3260;52.438;13.502;2022-07-17T05:06:25;5.10;;;0.90;;
3287;SDS011;3260;52.438;13.502;2022-07-17T05:08:53;4.93;;;0.90;;
3287;SDS011;3260;52.438;13.502;2022-07-17T05:11:23;5.00;;;0.90;;
3287;SDS011;3260;52.438;13.502;2022-07-17T05:13:51;5.10;;;0.90;;
3287;SDS011;3260;52.438;13.502;2022-07-17T05:16:20;5.10;;;0.90;;
3287;SDS011;3260;52.438;13.502;2022-07-17T05:18:48;5.03;;;0.80;;
3287;SDS011;3260;52.438;13.502;2022-07-17T05:21:16;5.00;;;0.80;;
3287;SDS011;3260;52.438;13.502;2022-07-17T05:23:44;5.00;;;0.90;;
3287;SDS011;3260;52.438;13.502;2022-07-17T05:26:13;5.10;;;0.90;;
3287;SDS011;3260;52.438;13.502;2022-07-17T05:28:42;5.70;;;1.77;;
3287;SDS011;3260;52.438;13.502;2022-07-17T05:31:10;5.10;;;0.87;;
3287;SDS011;3260;52.438;13.502;2022-07-17T05:33:38;5.10;;;0.90;;
3287;SDS011;3260;52.438;13.502;2022-07-17T05:36:07;5.00;;;0.90;;
3287;SDS011;3260;52.438;13.502;2022-07-17T05:38:35;5.07;;;0.90;;
3287;SDS011;3260;52.438;13.502;2022-07-17T05:41:04;5.10;;;0.90;;
3287;SDS011;3260;52.438;13.502;2022-07-17T05:43:33;5.10;;;0.90;;
3287;SDS011;3260;52.438;13.502;2022-07-17T05:46:02;5.03;;;0.90;;
3287;SDS011;3260;52.438;13.502;2022-07-17T05:48:31;5.07;;;0.90;;
3287;SDS011;3260;52.438;13.502;2022-07-17T05:50:59;5.30;;;1.03;;
3287;SDS011;3260;52.438;13.502;2022-07-17T05:53:37;5.17;;;0.93;;
3287;SDS011;3260;52.438;13.502;2022-07-17T05:56:05;5.10;;;0.90;;
3287;SDS011;3260;52.438;13.502;2022-07-17T05:58:34;12.10;;;2.03;;
3287;SDS011;3260;52.438;13.502;2022-07-17T06:01:03;5.47;;;1.17;;
3287;SDS011;3260;52.438;13.502;2022-07-17T06:03:31;5.07;;;0.90;;
3287;SDS011;3260;52.438;13.502;2022-07-17T06:05:59;5.10;;;0.80;;
3287;SDS011;3260;52.438;13.502;2022-07-17T06:08:28;5.10;;;0.87;;
3287;SDS011;3260;52.438;13.502;2022-07-17T06:10:56;5.10;;;0.90;;
3287;SDS011;3260;52.438;13.502;2022-07-17T06:13:24;5.07;;;0.80;;
3287;SDS011;3260;52.438;13.502;2022-07-17T06:15:53;7.50;;;1.30;;
3287;SDS011;3260;52.438;13.502;2022-07-17T06:18:26;5.43;;;0.90;;
3287;SDS011;3260;52.438;13.502;2022-07-17T06:20:54;5.17;;;0.90;;
3287;SDS011;3260;52.438;13.502;2022-07-17T06:23:23;5.20;;;1.00;;
3287;SDS011;3260;52.438;13.502;2022-07-17T06:25:51;5.10;;;0.90;;
3287;SDS011;3260;52.438;13.502;2022-07-17T06:28:19;5.10;;;0.90;;
3287;SDS011;3260;52.438;13.502;2022-07-17T06:30:47;5.10;;;0.90;;
3287;SDS011;3260;52.438;13.502;2022-07-17T06:33:15;5.20;;;0.90;;
3287;SDS011;3260;52.438;13.502;2022-07-17T06:35:45;5.17;;;0.90;;
3287;SDS011;3260;52.438;13.502;2022-07-17T06:38:13;5.93;;;2.23;;
3287;SDS011;3260;52.438;13.502;2022-07-17T06:40:42;5.27;;;0.90;;
3287;SDS011;3260;52.438;13.502;2022-07-17T06:43:10;5.20;;;0.90;;
3287;SDS011;3260;52.438;13.502;2022-07-17T06:45:38;5.23;;;0.90;;
3287;SDS011;3260;52.438;13.502;2022-07-17T06:48:06;5.20;;;0.90;;
3287;SDS011;3260;52.438;13.502;2022-07-17T06:50:35;5.10;;;0.83;;
3287;SDS011;3260;52.438;13.502;2022-07-17T06:53:04;5.33;;;1.00;;
3287;SDS011;3260;52.438;13.502;2022-07-17T06:55:32;5.60;;;1.00;;
3287;SDS011;3260;52.438;13.502;2022-07-17T06:58:01;5.20;;;0.90;;
3287;SDS011;3260;52.438;13.502;2022-07-17T07:00:29;5.20;;;0.90;;
3287;SDS011;3260;52.438;13.502;2022-07-17T07:02:57;5.10;;;0.90;;
3287;SDS011;3260;52.438;13.502;2022-07-17T07:05:25;5.10;;;0.90;;
3287;SDS011;3260;52.438;13.502;2022-07-17T07:07:53;5.20;;;1.00;;
3287;SDS011;3260;52.438;13.502;2022-07-17T07:10:23;5.10;;;0.90;;
3287;SDS011;3260;52.438;13.502;2022-07-17T07:12:51;5.20;;;0.90;;
3287;SDS011;3260;52.438;13.502;2022-07-17T07:15:22;5.13;;;0.90;;
3287;SDS011;3260;52.438;13.502;2022-07-17T07:17:50;5.20;;;0.80;;
3287;SDS011;3260;52.438;13.502;2022-07-17T07:20:19;5.30;;;0.90;;
3287;SDS011;3260;52.438;13.502;2022-07-17T07:22:48;5.20;;;0.90;;
3287;SDS011;3260;52.438;13.502;2022-07-17T07:25:16;5.50;;;1.27;;
3287;SDS011;3260;52.438;13.502;2022-07-17T07:27:46;6.47;;;3.10;;
3287;SDS011;3260;52.438;13.502;2022-07-17T07:30:14;5.23;;;0.90;;
3287;SDS011;3260;52.438;13.502;2022-07-17T07:32:42;5.30;;;0.90;;
3287;SDS011;3260;52.438;13.502;2022-07-17T07:35:10;5.20;;;0.80;;
3287;SDS011;3260;52.438;13.502;2022-07-17T07:37:39;5.27;;;0.90;;
3287;SDS011;3260;52.438;13.502;2022-07-17T07:40:07;5.20;;;0.90;;
3287;SDS011;3260;52.438;13.502;2022-07-17T07:42:37;5.20;;;0.90;;
3287;SDS011;3260;52.438;13.502;2022-07-17T07:45:08;5.23;;;0.90;;
3287;SDS011;3260;52.438;13.502;2022-07-17T07:47:40;5.30;;;0.90;;
3287;SDS011;3260;52.438;13.502;2022-07-17T07:50:09;9.63;;;1.10;;
3287;SDS011;3260;52.438;13.502;2022-07-17T07:52:39;5.20;;;0.80;;
3287;SDS011;3260;52.438;13.502;2022-07-17T07:55:08;5.83;;;1.33;;
3287;SDS011;3260;52.438;13.502;2022-07-17T07:57:45;9.00;;;1.30;;
3287;SDS011;3260;52.438;13.502;2022-07-17T08:00:15;6.10;;;1.03;;
3287;SDS011;3260;52.438;13.502;2022-07-17T08:02:45;5.23;;;0.97;;
3287;SDS011;3260;52.438;13.502;2022-07-17T08:05:13;5.97;;;1.37;;
3287;SDS011;3260;52.438;13.502;2022-07-17T08:07:41;5.20;;;0.80;;
3287;SDS011;3260;52.438;13.502;2022-07-17T08:10:09;5.60;;;0.97;;
3287;SDS011;3260;52.438;13.502;2022-07-17T08:12:37;9.80;;;2.80;;
3287;SDS011;3260;52.438;13.502;2022-07-17T08:15:12;5.60;;;1.13;;
3287;SDS011;3260;52.438;13.502;2022-07-17T08:17:42;5.90;;;0.90;;
3287;SDS011;3260;52.438;13.502;2022-07-17T08:20:11;5.60;;;1.17;;
3287;SDS011;3260;52.438;13.502;2022-07-17T08:22:41;5.10;;;0.90;;
3287;SDS011;3260;52.438;13.502;2022-07-17T08:25:30;5.10;;;0.80;;
3287;SDS011;3260;52.438;13.502;2022-07-17T08:28:00;5.30;;;0.90;;
3287;SDS011;3260;52.438;13.502;2022-07-17T08:30:28;5.30;;;0.80;;
3287;SDS011;3260;52.438;13.502;2022-07-17T08:33:02;8.40;;;1.20;;
3287;SDS011;3260;52.438;13.502;2022-07-17T08:35:32;5.10;;;0.97;;
3287;SDS011;3260;52.438;13.502;2022-07-17T08:38:01;10.83;;;1.57;;
3287;SDS011;3260;52.438;13.502;2022-07-17T08:40:32;5.20;;;0.83;;
3287;SDS011;3260;52.438;13.502;2022-07-17T08:43:03;5.30;;;1.00;;
3287;SDS011;3260;52.438;13.502;2022-07-17T08:45:33;5.30;;;0.80;;
3287;SDS011;3260;52.438;13.502;2022-07-17T08:48:13;5.20;;;0.90;;
3287;SDS011;3260;52.438;13.502;2022-07-17T08:50:44;5.30;;;0.90;;
3287;SDS011;3260;52.438;13.502;2022-07-17T08:53:15;7.90;;;1.47;;
3287;SDS011;3260;52.438;13.502;2022-07-17T08:55:43;5.20;;;0.90;;
3287;SDS011;3260;52.438;13.502;2022-07-17T08:58:13;6.43;;;1.00;;
3287;SDS011;3260;52.438;13.502;2022-07-17T09:00:43;8.50;;;1.10;;
3287;SDS011;3260;52.438;13.502;2022-07-17T09:03:14;5.20;;;0.90;;
3287;SDS011;3260;52.438;13.502;2022-07-17T09:05:44;5.20;;;0.90;;
3287;SDS011;3260;52.438;13.502;2022-07-17T09:08:17;10.50;;;1.67;;
3287;SDS011;3260;52.438;13.502;2022-07-17T09:10:48;5.27;;;0.90;;
3287;SDS011;3260;52.438;13.502;2022-07-17T09:13:20;5.20;;;0.90;;
3287;SDS011;3260;52.438;13.502;2022-07-17T09:15:56;5.27;;;0.90;;
3287;SDS011;3260;52.438;13.502;2022-07-17T09:18:42;5.20;;;0.80;;
3287;SDS011;3260;52.438;13.502;2022-07-17T09:21:16;5.20;;;0.80;;
3287;SDS011;3260;52.438;13.502;2022-07-17T09:23:56;5.13;;;0.90;;
3287;SDS011;3260;52.438;13.502;2022-07-17T09:26:26;6.00;;;0.90;;
3287;SDS011;3260;52.438;13.502;2022-07-17T09:28:55;5.30;;;0.80;;
3287;SDS011;3260;52.438;13.502;2022-07-17T09:31:24;5.23;;;0.90;;
3287;SDS011;3260;52.438;13.502;2022-07-17T09:33:55;5.30;;;0.90;;
3287;SDS011;3260;52.438;13.502;2022-07-17T09:36:25;5.27;;;0.90;;
3287;SDS011;3260;52.438;13.502;2022-07-17T09:38:56;5.23;;;0.90;;
3287;SDS011;3260;52.438;13.502;2022-07-17T09:41:25;5.20;;;0.90;;
3287;SDS011;3260;52.438;13.502;2022-07-17T09:43:59;5.13;;;0.90;;
3287;SDS011;3260;52.438;13.502;2022-07-17T09:46:29;5.20;;;0.87;;
3287;SDS011;3260;52.438;13.502;2022-07-17T09:49:03;5.17;;;0.80;;
3287;SDS011;3260;52.438;13.502;2022-07-17T09:51:34;5.50;;;0.97;;
3287;SDS011;3260;52.438;13.502;2022-07-17T09:54:06;5.40;;;1.03;;
3287;SDS011;3260;52.438;13.502;2022-07-17T09:56:38;10.77;;;1.27;;
3287;SDS011;3260;52.438;13.502;2022-07-17T09:59:07;5.27;;;0.80;;
3287;SDS011;3260;52.438;13.502;2022-07-17T10:01:38;5.40;;;0.90;;
3287;SDS011;3260;52.438;13.502;2022-07-17T10:04:11;5.53;;;1.20;;
3287;SDS011;3260;52.438;13.502;2022-07-17T10:06:39;5.53;;;1.10;;
3287;SDS011;3260;52.438;13.502;2022-07-17T10:09:07;5.30;;;0.90;;
3287;SDS011;3260;52.438;13.502;2022-07-17T10:11:38;7.20;;;0.90;;
3287;SDS011;3260;52.438;13.502;2022-07-17T10:14:14;5.30;;;0.90;;
3287;SDS011;3260;52.438;13.502;2022-07-17T10:16:44;9.20;;;1.10;;
3287;SDS011;3260;52.438;13.502;2022-07-17T10:19:18;5.20;;;0.90;;
3287;SDS011;3260;52.438;13.502;2022-07-17T10:21:53;8.63;;;1.20;;
3287;SDS011;3260;52.438;13.502;2022-07-17T10:24:24;5.80;;;1.10;;
3287;SDS011;3260;52.438;13.502;2022-07-17T10:26:53;5.13;;;0.80;;
3287;SDS011;3260;52.438;13.502;2022-07-17T10:29:25;5.20;;;0.90;;
3287;SDS011;3260;52.438;13.502;2022-07-17T10:32:00;5.17;;;0.90;;
3287;SDS011;3260;52.438;13.502;2022-07-17T10:34:40;5.20;;;0.80;;
3287;SDS011;3260;52.438;13.502;2022-07-17T10:37:18;5.20;;;0.90;;
3287;SDS011;3260;52.438;13.502;2022-07-17T10:40:01;5.40;;;1.10;;
3287;SDS011;3260;52.438;13.502;2022-07-17T10:42:39;5.97;;;0.90;;
3287;SDS011;3260;52.438;13.502;2022-07-17T10:45:19;5.20;;;0.90;;
3287;SDS011;3260;52.438;13.502;2022-07-17T10:47:54;5.60;;;0.90;;
3287;SDS011;3260;52.438;13.502;2022-07-17T10:50:29;5.40;;;1.03;;
3287;SDS011;3260;52.438;13.502;2022-07-17T10:53:03;5.20;;;0.90;;
3287;SDS011;3260;52.438;13.502;2022-07-17T10:55:36;5.13;;;0.80;;
3287;SDS011;3260;52.438;13.502;2022-07-17T10:58:17;5.60;;;1.23;;
3287;SDS011;3260;52.438;13.502;2022-07-17T11:00:55;5.90;;;1.43;;
3287;SDS011;3260;52.438;13.502;2022-07-17T11:03:30;5.70;;;0.90;;
3287;SDS011;3260;52.438;13.502;2022-07-17T11:06:07;5.20;;;0.83;;
3287;SDS011;3260;52.438;13.502;2022-07-17T11:08:42;5.10;;;0.80;;
3287;SDS011;3260;52.438;13.502;2022-07-17T11:11:13;6.43;;;1.17;;
3287;SDS011;3260;52.438;13.502;2022-07-17T11:13:53;5.10;;;0.90;;
3287;SDS011;3260;52.438;13.502;2022-07-17T11:16:23;7.70;;;1.90;;
3287;SDS011;3260;52.438;13.502;2022-07-17T11:18:57;5.10;;;0.90;;
3287;SDS011;3260;52.438;13.502;2022-07-17T11:21:27;5.07;;;0.80;;
3287;SDS011;3260;52.438;13.502;2022-07-17T11:23:56;5.40;;;1.27;;
3287;SDS011;3260;52.438;13.502;2022-07-17T11:26:24;5.80;;;1.03;;
3287;SDS011;3260;52.438;13.502;2022-07-17T11:28:55;5.50;;;1.00;;
3287;SDS011;3260;52.438;13.502;2022-07-17T11:31:29;5.10;;;0.80;;
3287;SDS011;3260;52.438;13.502;2022-07-17T11:33:58;5.07;;;0.80;;
3287;SDS011;3260;52.438;13.502;2022-07-17T11:36:31;4.97;;;0.80;;
3287;SDS011;3260;52.438;13.502;2022-07-17T11:39:10;5.40;;;1.40;;
3287;SDS011;3260;52.438;13.502;2022-07-17T11:41:41;5.03;;;0.80;;
3287;SDS011;3260;52.438;13.502;2022-07-17T11:44:12;4.93;;;0.80;;
3287;SDS011;3260;52.438;13.502;2022-07-17T11:46:42;6.33;;;1.07;;
3287;SDS011;3260;52.438;13.502;2022-07-17T11:49:22;5.17;;;1.00;;
3287;SDS011;3260;52.438;13.502;2022-07-17T11:51:54;5.00;;;0.80;;
3287;SDS011;3260;52.438;13.502;2022-07-17T11:54:25;5.60;;;1.43;;
3287;SDS011;3260;52.438;13.502;2022-07-17T11:56:54;4.80;;;0.90;;
3287;SDS011;3260;52.438;13.502;2022-07-17T11:59:25;4.57;;;0.80;;
3287;SDS011;3260;52.438;13.502;2022-07-17T12:01:56;4.60;;;0.80;;
3287;SDS011;3260;52.438;13.502;2022-07-17T12:04:35;4.50;;;0.80;;
3287;SDS011;3260;52.438;13.502;2022-07-17T12:07:05;4.47;;;0.80;;
3287;SDS011;3260;52.438;13.502;2022-07-17T12:09:33;4.27;;;0.70;;
3287;SDS011;3260;52.438;13.502;2022-07-17T12:12:01;4.17;;;0.70;;
3287;SDS011;3260;52.438;13.502;2022-07-17T12:14:30;4.30;;;0.70;;
3287;SDS011;3260;52.438;13.502;2022-07-17T12:17:02;4.17;;;0.77;;
3287;SDS011;3260;52.438;13.502;2022-07-17T12:19:32;8.63;;;1.27;;
3287;SDS011;3260;52.438;13.502;2022-07-17T12:22:00;4.10;;;0.70;;
3287;SDS011;3260;52.438;13.502;2022-07-17T12:24:32;4.00;;;0.80;;
3287;SDS011;3260;52.438;13.502;2022-07-17T12:27:05;3.67;;;0.70;;
3287;SDS011;3260;52.438;13.502;2022-07-17T12:29:36;3.70;;;0.70;;
3287;SDS011;3260;52.438;13.502;2022-07-17T12:32:06;3.70;;;0.70;;
3287;SDS011;3260;52.438;13.502;2022-07-17T12:34:38;3.53;;;0.70;;
3287;SDS011;3260;52.438;13.502;2022-07-17T12:37:11;3.50;;;0.70;;
3287;SDS011;3260;52.438;13.502;2022-07-17T12:39:41;3.30;;;0.70;;
3287;SDS011;3260;52.438;13.502;2022-07-17T12:42:09;3.38;;;0.80;;
3287;SDS011;3260;52.438;13.502;2022-07-17T12:44:37;3.20;;;0.70;;
3287;SDS011;3260;52.438;13.502;2022-07-17T12:47:08;3.10;;;0.80;;
3287;SDS011;3260;52.438;13.502;2022-07-17T12:49:36;3.05;;;0.70;;
3287;SDS011;3260;52.438;13.502;2022-07-17T12:52:06;2.90;;;0.70;;
3287;SDS011;3260;52.438;13.502;2022-07-17T12:54:34;2.92;;;0.70;;
3287;SDS011;3260;52.438;13.502;2022-07-17T12:57:04;2.97;;;0.70;;
3287;SDS011;3260;52.438;13.502;2022-07-17T12:59:33;2.80;;;0.70;;
3287;SDS011;3260;52.438;13.502;2022-07-17T13:02:02;2.92;;;0.77;;
3287;SDS011;3260;52.438;13.502;2022-07-17T13:04:30;3.30;;;0.70;;
3287;SDS011;3260;52.438;13.502;2022-07-17T13:06:58;3.25;;;0.70;;
3287;SDS011;3260;52.438;13.502;2022-07-17T13:09:28;2.97;;;0.70;;
3287;SDS011;3260;52.438;13.502;2022-07-17T13:11:56;3.00;;;0.90;;
3287;SDS011;3260;52.438;13.502;2022-07-17T13:14:25;3.30;;;0.80;;
3287;SDS011;3260;52.438;13.502;2022-07-17T13:16:53;3.28;;;0.70;;
3287;SDS011;3260;52.438;13.502;2022-07-17T13:19:22;3.30;;;0.70;;
3287;SDS011;3260;52.438;13.502;2022-07-17T13:21:50;3.47;;;0.70;;
3287;SDS011;3260;52.438;13.502;2022-07-17T13:24:18;3.50;;;0.70;;
3287;SDS011;3260;52.438;13.502;2022-07-17T13:26:46;3.50;;;0.80;;
3287;SDS011;3260;52.438;13.502;2022-07-17T13:29:14;3.20;;;0.70;;
3287;SDS011;3260;52.438;13.502;2022-07-17T13:31:44;3.00;;;0.70;;
3287;SDS011;3260;52.438;13.502;2022-07-17T13:34:21;3.20;;;1.17;;
3287;SDS011;3260;52.438;13.502;2022-07-17T13:36:50;3.80;;;1.10;;
3287;SDS011;3260;52.438;13.502;2022-07-17T13:39:18;3.15;;;0.70;;
3287;SDS011;3260;52.438;13.502;2022-07-17T13:41:46;5.05;;;2.88;;
3287;SDS011;3260;52.438;13.502;2022-07-17T13:44:15;3.22;;;0.70;;
3287;SDS011;3260;52.438;13.502;2022-07-17T13:46:44;3.03;;;0.70;;
3287;SDS011;3260;52.438;13.502;2022-07-17T13:49:12;3.00;;;0.90;;
3287;SDS011;3260;52.438;13.502;2022-07-17T13:51:41;3.38;;;0.90;;
3287;SDS011;3260;52.438;13.502;2022-07-17T13:54:09;3.47;;;0.80;;
3287;SDS011;3260;52.438;13.502;2022-07-17T13:56:38;3.90;;;0.80;;
3287;SDS011;3260;52.438;13.502;2022-07-17T13:59:07;3.73;;;0.80;;
3287;SDS011;3260;52.438;13.502;2022-07-17T14:01:35;3.60;;;0.70;;
3287;SDS011;3260;52.438;13.502;2022-07-17T14:04:05;3.30;;;0.70;;
3287;SDS011;3260;52.438;13.502;2022-07-17T14:06:33;3.28;;;0.73;;
3287;SDS011;3260;52.438;13.502;2022-07-17T14:09:01;3.20;;;0.70;;
3287;SDS011;3260;52.438;13.502;2022-07-17T14:11:29;3.30;;;0.70;;
3287;SDS011;3260;52.438;13.502;2022-07-17T14:13:57;3.40;;;0.70;;
3287;SDS011;3260;52.438;13.502;2022-07-17T14:16:26;3.30;;;0.70;;
3287;SDS011;3260;52.438;13.502;2022-07-17T14:18:54;3.30;;;0.70;;
3287;SDS011;3260;52.438;13.502;2022-07-17T14:21:27;3.20;;;0.70;;
3287;SDS011;3260;52.438;13.502;2022-07-17T14:23:58;2.90;;;0.70;;
3287;SDS011;3260;52.438;13.502;2022-07-17T14:26:28;2.67;;;0.70;;
3287;SDS011;3260;52.438;13.502;2022-07-17T14:28:57;2.55;;;0.70;;
3287;SDS011;3260;52.438;13.502;2022-07-17T14:31:26;2.60;;;0.70;;
3287;SDS011;3260;52.438;13.502;2022-07-17T14:33:55;2.40;;;0.65;;
3287;SDS011;3260;52.438;13.502;2022-07-17T14:36:24;2.38;;;0.70;;
3287;SDS011;3260;52.438;13.502;2022-07-17T14:38:53;2.20;;;0.70;;
3287;SDS011;3260;52.438;13.502;2022-07-17T14:41:22;2.28;;;0.70;;
3287;SDS011;3260;52.438;13.502;2022-07-17T14:43:52;2.20;;;0.60;;
3287;SDS011;3260;52.438;13.502;2022-07-17T14:46:21;2.17;;;0.70;;
3287;SDS011;3260;52.438;13.502;2022-07-17T14:48:49;2.25;;;0.65;;
3287;SDS011;3260;52.438;13.502;2022-07-17T14:51:17;2.20;;;0.70;;
3287;SDS011;3260;52.438;13.502;2022-07-17T14:53:45;2.20;;;0.70;;
3287;SDS011;3260;52.438;13.502;2022-07-17T14:56:14;2.60;;;0.95;;
3287;SDS011;3260;52.438;13.502;2022-07-17T14:58:43;2.20;;;0.60;;
3287;SDS011;3260;52.438;13.502;2022-07-17T15:01:11;2.20;;;0.70;;
3287;SDS011;3260;52.438;13.502;2022-07-17T15:03:39;2.20;;;0.70;;
3287;SDS011;3260;52.438;13.502;2022-07-17T15:06:07;2.28;;;0.60;;
3287;SDS011;3260;52.438;13.502;2022-07-17T15:08:35;2.67;;;1.05;;
3287;SDS011;3260;52.438;13.502;2022-07-17T15:11:03;2.45;;;0.70;;
3287;SDS011;3260;52.438;13.502;2022-07-17T15:13:33;2.50;;;0.70;;
3287;SDS011;3260;52.438;13.502;2022-07-17T15:16:01;2.58;;;0.70;;
3287;SDS011;3260;52.438;13.502;2022-07-17T15:18:30;2.75;;;0.70;;
3287;SDS011;3260;52.438;13.502;2022-07-17T15:20:58;2.70;;;0.70;;
3287;SDS011;3260;52.438;13.502;2022-07-17T15:23:27;2.70;;;0.70;;
3287;SDS011;3260;52.438;13.502;2022-07-17T15:25:55;2.90;;;0.80;;
3287;SDS011;3260;52.438;13.502;2022-07-17T15:28:23;3.20;;;0.80;;
3287;SDS011;3260;52.438;13.502;2022-07-17T15:30:52;3.40;;;0.70;;
3287;SDS011;3260;52.438;13.502;2022-07-17T15:33:20;3.90;;;1.10;;
3287;SDS011;3260;52.438;13.502;2022-07-17T15:35:51;4.10;;;0.80;;
3287;SDS011;3260;52.438;13.502;2022-07-17T15:38:19;3.90;;;0.80;;
3287;SDS011;3260;52.438;13.502;2022-07-17T15:40:48;3.70;;;0.70;;
3287;SDS011;3260;52.438;13.502;2022-07-17T15:43:16;3.45;;;0.70;;
3287;SDS011;3260;52.438;13.502;2022-07-17T15:45:45;3.17;;;0.70;;
3287;SDS011;3260;52.438;13.502;2022-07-17T15:48:14;3.10;;;0.70;;
3287;SDS011;3260;52.438;13.502;2022-07-17T15:50:42;2.90;;;0.70;;
3287;SDS011;3260;52.438;13.502;2022-07-17T15:53:11;3.20;;;0.80;;
3287;SDS011;3260;52.438;13.502;2022-07-17T15:55:39;3.15;;;0.90;;
3287;SDS011;3260;52.438;13.502;2022-07-17T15:58:07;3.10;;;1.00;;
3287;SDS011;3260;52.438;13.502;2022-07-17T16:00:35;2.95;;;0.70;;
3287;SDS011;3260;52.438;13.502;2022-07-17T16:03:03;2.90;;;0.70;;
3287;SDS011;3260;52.438;13.502;2022-07-17T16:05:33;2.88;;;0.70;;
3287;SDS011;3260;52.438;13.502;2022-07-17T16:08:02;2.80;;;0.70;;
3287;SDS011;3260;52.438;13.502;2022-07-17T16:10:30;2.70;;;0.70;;
3287;SDS011;3260;52.438;13.502;2022-07-17T16:12:58;2.70;;;0.70;;
3287;SDS011;3260;52.438;13.502;2022-07-17T16:15:26;2.67;;;0.70;;
3287;SDS011;3260;52.438;13.502;2022-07-17T16:17:55;2.70;;;0.70;;
3287;SDS011;3260;52.438;13.502;2022-07-17T16:20:24;3.03;;;0.70;;
3287;SDS011;3260;52.438;13.502;2022-07-17T16:22:54;3.10;;;0.70;;
3287;SDS011;3260;52.438;13.502;2022-07-17T16:25:22;3.25;;;0.80;;
3287;SDS011;3260;52.438;13.502;2022-07-17T16:27:51;3.33;;;0.70;;
3287;SDS011;3260;52.438;13.502;2022-07-17T16:30:19;3.33;;;0.70;;
3287;SDS011;3260;52.438;13.502;2022-07-17T16:32:47;3.25;;;0.70;;
3287;SDS011;3260;52.438;13.502;2022-07-17T16:35:15;3.20;;;0.70;;
3287;SDS011;3260;52.438;13.502;2022-07-17T16:37:43;3.15;;;0.70;;
3287;SDS011;3260;52.438;13.502;2022-07-17T16:40:13;3.00;;;0.70;;
3287;SDS011;3260;52.438;13.502;2022-07-17T16:42:41;3.00;;;0.70;;
3287;SDS011;3260;52.438;13.502;2022-07-17T16:45:09;2.95;;;0.70;;
3287;SDS011;3260;52.438;13.502;2022-07-17T16:47:37;2.88;;;0.70;;
3287;SDS011;3260;52.438;13.502;2022-07-17T16:50:06;3.10;;;0.90;;
3287;SDS011;3260;52.438;13.502;2022-07-17T16:52:35;3.00;;;0.70;;
3287;SDS011;3260;52.438;13.502;2022-07-17T16:55:04;3.20;;;0.70;;
3287;SDS011;3260;52.438;13.502;2022-07-17T16:57:36;3.30;;;0.70;;
3287;SDS011;3260;52.438;13.502;2022-07-17T17:00:05;3.50;;;0.70;;
3287;SDS011;3260;52.438;13.502;2022-07-17T17:02:34;3.58;;;0.70;;
3287;SDS011;3260;52.438;13.502;2022-07-17T17:05:03;3.67;;;0.70;;
3287;SDS011;3260;52.438;13.502;2022-07-17T17:07:32;3.50;;;0.70;;
3287;SDS011;3260;52.438;13.502;2022-07-17T17:10:00;3.50;;;0.70;;
3287;SDS011;3260;52.438;13.502;2022-07-17T17:12:29;3.57;;;0.80;;
3287;SDS011;3260;52.438;13.502;2022-07-17T17:14:58;3.70;;;0.70;;
3287;SDS011;3260;52.438;13.502;2022-07-17T17:17:26;3.70;;;0.70;;
3287;SDS011;3260;52.438;13.502;2022-07-17T17:19:54;3.70;;;0.70;;
3287;SDS011;3260;52.438;13.502;2022-07-17T17:22:23;6.43;;;4.10;;
3287;SDS011;3260;52.438;13.502;2022-07-17T17:24:51;3.80;;;0.70;;
3287;SDS011;3260;52.438;13.502;2022-07-17T17:27:19;3.70;;;0.77;;
3287;SDS011;3260;52.438;13.502;2022-07-17T17:29:47;3.70;;;0.70;;
3287;SDS011;3260;52.438;13.502;2022-07-17T17:32:17;3.77;;;0.80;;
3287;SDS011;3260;52.438;13.502;2022-07-17T17:34:45;3.90;;;0.70;;
3287;SDS011;3260;52.438;13.502;2022-07-17T17:37:13;3.90;;;0.70;;
3287;SDS011;3260;52.438;13.502;2022-07-17T17:39:42;3.87;;;0.70;;
3287;SDS011;3260;52.438;13.502;2022-07-17T17:42:10;4.20;;;0.97;;
3287;SDS011;3260;52.438;13.502;2022-07-17T17:44:38;3.90;;;0.70;;
3287;SDS011;3260;52.438;13.502;2022-07-17T17:47:06;4.03;;;0.77;;
3287;SDS011;3260;52.438;13.502;2022-07-17T17:49:35;4.00;;;0.70;;
3287;SDS011;3260;52.438;13.502;2022-07-17T17:52:04;4.00;;;0.70;;
3287;SDS011;3260;52.438;13.502;2022-07-17T17:54:32;4.10;;;0.80;;
3287;SDS011;3260;52.438;13.502;2022-07-17T17:57:00;4.30;;;0.80;;
3287;SDS011;3260;52.438;13.502;2022-07-17T17:59:28;4.30;;;0.80;;
3287;SDS011;3260;52.438;13.502;2022-07-17T18:02:02;4.40;;;0.80;;
3287;SDS011;3260;52.438;13.502;2022-07-17T18:04:31;4.43;;;0.80;;
3287;SDS011;3260;52.438;13.502;2022-07-17T18:07:02;4.43;;;0.80;;
3287;SDS011;3260;52.438;13.502;2022-07-17T18:09:30;4.63;;;0.80;;
3287;SDS011;3260;52.438;13.502;2022-07-17T18:11:58;4.80;;;0.80;;
3287;SDS011;3260;52.438;13.502;2022-07-17T18:14:26;5.00;;;0.80;;
3287;SDS011;3260;52.438;13.502;2022-07-17T18:16:54;5.20;;;0.83;;
3287;SDS011;3260;52.438;13.502;2022-07-17T18:19:22;5.27;;;0.90;;
3287;SDS011;3260;52.438;13.502;2022-07-17T18:21:51;5.30;;;0.90;;
3287;SDS011;3260;52.438;13.502;2022-07-17T18:24:20;5.43;;;0.90;;
3287;SDS011;3260;52.438;13.502;2022-07-17T18:26:49;5.43;;;0.90;;
3287;SDS011;3260;52.438;13.502;2022-07-17T18:29:18;5.47;;;0.90;;
3287;SDS011;3260;52.438;13.502;2022-07-17T18:31:48;5.53;;;0.90;;
3287;SDS011;3260;52.438;13.502;2022-07-17T18:34:17;5.60;;;0.90;;
3287;SDS011;3260;52.438;13.502;2022-07-17T18:36:46;5.57;;;0.90;;
3287;SDS011;3260;52.438;13.502;2022-07-17T18:39:15;5.67;;;0.90;;
3287;SDS011;3260;52.438;13.502;2022-07-17T18:41:45;5.50;;;0.90;;
3287;SDS011;3260;52.438;13.502;2022-07-17T18:44:13;5.53;;;0.90;;
3287;SDS011;3260;52.438;13.502;2022-07-17T18:46:41;5.60;;;0.90;;
3287;SDS011;3260;52.438;13.502;2022-07-17T18:49:09;5.53;;;0.90;;
3287;SDS011;3260;52.438;13.502;2022-07-17T18:51:37;5.60;;;0.90;;
3287;SDS011;3260;52.438;13.502;2022-07-17T18:54:07;5.60;;;0.90;;
3287;SDS011;3260;52.438;13.502;2022-07-17T18:56:35;5.70;;;0.90;;
3287;SDS011;3260;52.438;13.502;2022-07-17T18:59:04;5.60;;;0.90;;
3287;SDS011;3260;52.438;13.502;2022-07-17T19:01:32;5.60;;;0.90;;
3287;SDS011;3260;52.438;13.502;2022-07-17T19:04:01;5.63;;;0.90;;
3287;SDS011;3260;52.438;13.502;2022-07-17T19:06:31;5.57;;;0.90;;
3287;SDS011;3260;52.438;13.502;2022-07-17T19:09:01;5.60;;;0.90;;
3287;SDS011;3260;52.438;13.502;2022-07-17T19:11:30;5.70;;;0.90;;
3287;SDS011;3260;52.438;13.502;2022-07-17T19:13:59;5.67;;;0.90;;
3287;SDS011;3260;52.438;13.502;2022-07-17T19:16:29;5.60;;;0.90;;